sensor_id;sensor_type;location;lat;lon;timestamp;pressure;altitude;pressure_sealevel;temperature;humidity
76594;BME280;65482;50.240;14.302;2023-04-24T00:00:25;98470.13;;;8.52;77.62
76594;BME280;65482;50.240;14.302;2023-04-24T00:03:12;98477.00;;;8.53;77.44
76594;BME280;65482;50.240;14.302;2023-04-24T00:05:38;98472.25;;;8.56;77.53
76594;BME280;65482;50.240;14.302;2023-04-24T00:08:06;98472.56;;;8.62;77.49
76594;BME280;65482;50.240;14.302;2023-04-24T00:10:31;98460.38;;;8.61;77.72
76594;BME280;65482;50.240;14.302;2023-04-24T00:12:57;98457.75;;;8.61;77.58
76594;BME280;65482;50.240;14.302;2023-04-24T00:15:23;98456.41;;;8.65;77.72
76594;BME280;65482;50.240;14.302;2023-04-24T00:17:49;98467.94;;;8.64;77.97
76594;BME280;65482;50.240;14.302;2023-04-24T00:20:14;98473.41;;;8.77;78.00
76594;BME280;65482;50.240;14.302;2023-04-24T00:22:40;98463.84;;;8.84;77.46
76594;BME280;65482;50.240;14.302;2023-04-24T00:25:06;98464.16;;;8.89;77.67
76594;BME280;65482;50.240;14.302;2023-04-24T00:27:32;98465.78;;;8.90;77.00
76594;BME280;65482;50.240;14.302;2023-04-24T00:29:58;98460.81;;;8.95;77.20
76594;BME280;65482;50.240;14.302;2023-04-24T00:32:23;98452.56;;;8.99;77.17
76594;BME280;65482;50.240;14.302;2023-04-24T00:34:49;98443.78;;;9.06;76.69
76594;BME280;65482;50.240;14.302;2023-04-24T00:37:15;98430.94;;;9.11;76.78
76594;BME280;65482;50.240;14.302;2023-04-24T00:39:40;98437.28;;;9.17;76.65
76594;BME280;65482;50.240;14.302;2023-04-24T00:42:06;98434.59;;;9.25;76.22
76594;BME280;65482;50.240;14.302;2023-04-24T00:44:35;98422.59;;;9.23;76.12
76594;BME280;65482;50.240;14.302;2023-04-24T00:47:01;98414.72;;;9.23;76.03
76594;BME280;65482;50.240;14.302;2023-04-24T00:49:26;98418.69;;;9.19;76.11
76594;BME280;65482;50.240;14.302;2023-04-24T00:51:52;98421.78;;;9.22;76.45
76594;BME280;65482;50.240;14.302;2023-04-24T00:54:19;98417.63;;;9.28;76.13
76594;BME280;65482;50.240;14.302;2023-04-24T00:56:45;98411.81;;;9.32;76.02
76594;BME280;65482;50.240;14.302;2023-04-24T00:59:12;98422.47;;;9.39;76.17
76594;BME280;65482;50.240;14.302;2023-04-24T01:01:39;98417.28;;;9.46;75.74
76594;BME280;65482;50.240;14.302;2023-04-24T01:04:07;98419.56;;;9.49;75.68
76594;BME280;65482;50.240;14.302;2023-04-24T01:06:33;98413.94;;;9.52;75.73
76594;BME280;65482;50.240;14.302;2023-04-24T01:08:59;98407.31;;;9.56;75.79
76594;BME280;65482;50.240;14.302;2023-04-24T01:11:25;98404.50;;;9.58;75.51
76594;BME280;65482;50.240;14.302;2023-04-24T01:13:51;98400.69;;;9.60;75.18
76594;BME280;65482;50.240;14.302;2023-04-24T01:16:17;98397.06;;;9.61;75.08
76594;BME280;65482;50.240;14.302;2023-04-24T01:18:45;98397.50;;;9.65;75.06
76594;BME280;65482;50.240;14.302;2023-04-24T01:21:13;98405.22;;;9.66;75.25
76594;BME280;65482;50.240;14.302;2023-04-24T01:23:39;98396.88;;;9.63;75.01
76594;BME280;65482;50.240;14.302;2023-04-24T01:26:05;98397.06;;;9.61;75.28
76594;BME280;65482;50.240;14.302;2023-04-24T01:28:31;98394.88;;;9.65;75.37
76594;BME280;65482;50.240;14.302;2023-04-24T01:30:56;98402.78;;;9.65;75.52
76594;BME280;65482;50.240;14.302;2023-04-24T01:33:22;98394.16;;;9.71;75.11
76594;BME280;65482;50.240;14.302;2023-04-24T01:35:48;98395.44;;;9.75;75.36
76594;BME280;65482;50.240;14.302;2023-04-24T01:38:14;98398.31;;;9.80;75.19
76594;BME280;65482;50.240;14.302;2023-04-24T01:40:40;98398.97;;;9.82;75.33
76594;BME280;65482;50.240;14.302;2023-04-24T01:43:06;98401.75;;;9.81;75.81
76594;BME280;65482;50.240;14.302;2023-04-24T01:45:32;98402.84;;;9.86;76.03
76594;BME280;65482;50.240;14.302;2023-04-24T01:47:57;98403.06;;;9.85;75.95
76594;BME280;65482;50.240;14.302;2023-04-24T01:50:24;98411.50;;;9.95;75.90
76594;BME280;65482;50.240;14.302;2023-04-24T01:52:49;98403.66;;;10.02;75.77
76594;BME280;65482;50.240;14.302;2023-04-24T01:55:15;98397.75;;;10.00;75.49
76594;BME280;65482;50.240;14.302;2023-04-24T01:57:41;98394.56;;;10.04;75.41
76594;BME280;65482;50.240;14.302;2023-04-24T02:00:07;98404.13;;;10.05;75.69
76594;BME280;65482;50.240;14.302;2023-04-24T02:02:33;98404.47;;;10.02;75.89
76594;BME280;65482;50.240;14.302;2023-04-24T02:04:59;98404.56;;;10.09;76.06
76594;BME280;65482;50.240;14.302;2023-04-24T02:07:25;98402.19;;;10.14;75.94
76594;BME280;65482;50.240;14.302;2023-04-24T02:09:52;98412.25;;;10.25;75.35
76594;BME280;65482;50.240;14.302;2023-04-24T02:12:17;98401.34;;;10.28;75.08
76594;BME280;65482;50.240;14.302;2023-04-24T02:14:44;98399.00;;;10.33;75.42
76594;BME280;65482;50.240;14.302;2023-04-24T02:17:09;98396.25;;;10.42;75.23
76594;BME280;65482;50.240;14.302;2023-04-24T02:19:38;98405.34;;;10.39;75.60
76594;BME280;65482;50.240;14.302;2023-04-24T02:22:04;98412.25;;;10.40;76.40
76594;BME280;65482;50.240;14.302;2023-04-24T02:24:30;98399.03;;;10.55;76.13
76594;BME280;65482;50.240;14.302;2023-04-24T02:26:56;98403.09;;;10.58;75.95
76594;BME280;65482;50.240;14.302;2023-04-24T02:29:23;98394.19;;;10.59;76.04
76594;BME280;65482;50.240;14.302;2023-04-24T02:31:49;98390.72;;;10.58;76.27
76594;BME280;65482;50.240;14.302;2023-04-24T02:34:15;98389.44;;;10.69;75.90
76594;BME280;65482;50.240;14.302;2023-04-24T02:36:41;98383.22;;;10.77;75.11
76594;BME280;65482;50.240;14.302;2023-04-24T02:39:07;98374.53;;;10.83;75.27
76594;BME280;65482;50.240;14.302;2023-04-24T02:41:33;98370.97;;;10.90;75.27
76594;BME280;65482;50.240;14.302;2023-04-24T02:43:58;98384.91;;;10.84;75.71
76594;BME280;65482;50.240;14.302;2023-04-24T02:46:24;98380.47;;;10.91;75.85
76594;BME280;65482;50.240;14.302;2023-04-24T02:48:50;98370.38;;;10.95;76.08
76594;BME280;65482;50.240;14.302;2023-04-24T02:51:16;98366.50;;;10.91;76.22
76594;BME280;65482;50.240;14.302;2023-04-24T02:53:41;98358.56;;;10.91;76.31
76594;BME280;65482;50.240;14.302;2023-04-24T02:56:10;98359.38;;;10.91;76.62
76594;BME280;65482;50.240;14.302;2023-04-24T02:58:38;98373.59;;;10.90;76.43
76594;BME280;65482;50.240;14.302;2023-04-24T03:01:04;98374.00;;;10.94;76.23
76594;BME280;65482;50.240;14.302;2023-04-24T03:03:31;98386.22;;;10.95;76.72
76594;BME280;65482;50.240;14.302;2023-04-24T03:05:56;98388.22;;;10.93;76.61
76594;BME280;65482;50.240;14.302;2023-04-24T03:08:23;98382.19;;;10.99;76.30
76594;BME280;65482;50.240;14.302;2023-04-24T03:10:51;98384.44;;;11.02;76.28
76594;BME280;65482;50.240;14.302;2023-04-24T03:13:17;98386.88;;;11.04;76.19
76594;BME280;65482;50.240;14.302;2023-04-24T03:15:42;98385.88;;;11.05;76.46
76594;BME280;65482;50.240;14.302;2023-04-24T03:18:08;98391.19;;;11.11;76.17
76594;BME280;65482;50.240;14.302;2023-04-24T03:20:33;98394.66;;;11.12;76.39
76594;BME280;65482;50.240;14.302;2023-04-24T03:22:59;98389.81;;;11.15;76.51
76594;BME280;65482;50.240;14.302;2023-04-24T03:25:25;98391.00;;;11.13;76.67
76594;BME280;65482;50.240;14.302;2023-04-24T03:27:51;98391.81;;;11.13;76.54
76594;BME280;65482;50.240;14.302;2023-04-24T03:30:16;98393.47;;;11.14;76.47
76594;BME280;65482;50.240;14.302;2023-04-24T03:32:42;98386.53;;;11.13;76.43
76594;BME280;65482;50.240;14.302;2023-04-24T03:35:08;98390.84;;;11.14;76.52
76594;BME280;65482;50.240;14.302;2023-04-24T03:37:34;98388.00;;;11.16;76.54
76594;BME280;65482;50.240;14.302;2023-04-24T03:40:00;98392.88;;;11.19;76.75
76594;BME280;65482;50.240;14.302;2023-04-24T03:42:25;98392.88;;;11.19;76.53
76594;BME280;65482;50.240;14.302;2023-04-24T03:44:51;98395.97;;;11.23;76.79
76594;BME280;65482;50.240;14.302;2023-04-24T03:47:16;98398.19;;;11.26;76.85
76594;BME280;65482;50.240;14.302;2023-04-24T03:49:42;98400.03;;;11.25;76.68
76594;BME280;65482;50.240;14.302;2023-04-24T03:52:07;98397.84;;;11.29;76.86
76594;BME280;65482;50.240;14.302;2023-04-24T03:54:33;98404.94;;;11.28;76.96
76594;BME280;65482;50.240;14.302;2023-04-24T03:56:59;98398.97;;;11.20;77.01
76594;BME280;65482;50.240;14.302;2023-04-24T03:59:25;98395.56;;;11.26;77.19
76594;BME280;65482;50.240;14.302;2023-04-24T04:01:51;98399.66;;;11.28;76.96
76594;BME280;65482;50.240;14.302;2023-04-24T04:04:16;98398.28;;;11.32;76.78
76594;BME280;65482;50.240;14.302;2023-04-24T04:06:42;98397.69;;;11.37;76.64
76594;BME280;65482;50.240;14.302;2023-04-24T04:09:09;98392.84;;;11.41;76.65
76594;BME280;65482;50.240;14.302;2023-04-24T04:11:35;98389.19;;;11.42;76.80
76594;BME280;65482;50.240;14.302;2023-04-24T04:14:01;98400.34;;;11.44;76.30
76594;BME280;65482;50.240;14.302;2023-04-24T04:16:27;98392.84;;;11.41;76.54
76594;BME280;65482;50.240;14.302;2023-04-24T04:18:52;98398.13;;;11.41;76.36
76594;BME280;65482;50.240;14.302;2023-04-24T04:21:18;98396.72;;;11.45;76.35
76594;BME280;65482;50.240;14.302;2023-04-24T04:23:44;98410.56;;;11.47;76.58
76594;BME280;65482;50.240;14.302;2023-04-24T04:26:11;98401.84;;;11.53;76.58
76594;BME280;65482;50.240;14.302;2023-04-24T04:28:38;98403.91;;;11.58;76.46
76594;BME280;65482;50.240;14.302;2023-04-24T04:31:05;98409.97;;;11.51;76.82
76594;BME280;65482;50.240;14.302;2023-04-24T04:33:33;98406.16;;;11.61;76.51
76594;BME280;65482;50.240;14.302;2023-04-24T04:35:59;98409.06;;;11.66;76.38
76594;BME280;65482;50.240;14.302;2023-04-24T04:38:26;98409.47;;;11.69;75.74
76594;BME280;65482;50.240;14.302;2023-04-24T04:40:56;98421.47;;;11.72;75.67
76594;BME280;65482;50.240;14.302;2023-04-24T04:43:24;98424.75;;;11.74;75.22
76594;BME280;65482;50.240;14.302;2023-04-24T04:45:51;98418.50;;;11.82;75.06
76594;BME280;65482;50.240;14.302;2023-04-24T04:48:17;98425.19;;;11.84;75.21
76594;BME280;65482;50.240;14.302;2023-04-24T04:50:44;98419.16;;;11.90;74.82
76594;BME280;65482;50.240;14.302;2023-04-24T04:53:10;98430.78;;;11.96;75.27
76594;BME280;65482;50.240;14.302;2023-04-24T04:55:36;98433.09;;;12.12;74.42
76594;BME280;65482;50.240;14.302;2023-04-24T04:58:02;98433.47;;;12.09;74.64
76594;BME280;65482;50.240;14.302;2023-04-24T05:00:28;98432.72;;;12.16;74.77
76594;BME280;65482;50.240;14.302;2023-04-24T05:02:59;98441.47;;;12.23;74.37
76594;BME280;65482;50.240;14.302;2023-04-24T05:05:25;98437.84;;;12.30;73.91
76594;BME280;65482;50.240;14.302;2023-04-24T05:07:51;98449.66;;;12.34;73.66
76594;BME280;65482;50.240;14.302;2023-04-24T05:10:18;98448.66;;;12.36;73.85
76594;BME280;65482;50.240;14.302;2023-04-24T05:12:43;98457.59;;;12.41;73.94
76594;BME280;65482;50.240;14.302;2023-04-24T05:15:10;98454.56;;;12.44;73.87
76594;BME280;65482;50.240;14.302;2023-04-24T05:17:36;98464.78;;;12.54;73.74
76594;BME280;65482;50.240;14.302;2023-04-24T05:20:03;98459.69;;;12.59;73.42
76594;BME280;65482;50.240;14.302;2023-04-24T05:22:31;98454.25;;;12.67;73.14
76594;BME280;65482;50.240;14.302;2023-04-24T05:24:58;98462.00;;;12.76;72.72
76594;BME280;65482;50.240;14.302;2023-04-24T05:27:24;98448.16;;;12.80;72.64
76594;BME280;65482;50.240;14.302;2023-04-24T05:29:50;98457.94;;;12.86;72.07
76594;BME280;65482;50.240;14.302;2023-04-24T05:32:20;98453.44;;;12.87;72.38
76594;BME280;65482;50.240;14.302;2023-04-24T05:34:45;98461.81;;;12.90;72.20
76594;BME280;65482;50.240;14.302;2023-04-24T05:37:14;98455.72;;;12.90;72.48
76594;BME280;65482;50.240;14.302;2023-04-24T05:40:35;98450.00;;;12.80;72.71
76594;BME280;65482;50.240;14.302;2023-04-24T05:44:26;98458.75;;;12.87;72.44
76594;BME280;65482;50.240;14.302;2023-04-24T05:47:19;98467.13;;;12.97;72.85
76594;BME280;65482;50.240;14.302;2023-04-24T05:50:05;98472.81;;;13.01;72.40
76594;BME280;65482;50.240;14.302;2023-04-24T05:52:50;98468.75;;;12.98;72.81
76594;BME280;65482;50.240;14.302;2023-04-24T05:55:58;98465.50;;;13.03;72.32
76594;BME280;65482;50.240;14.302;2023-04-24T05:58:55;98461.00;;;12.97;72.96
76594;BME280;65482;50.240;14.302;2023-04-24T06:01:53;98461.41;;;13.00;72.47
76594;BME280;65482;50.240;14.302;2023-04-24T06:12:20;98482.59;;;13.00;72.29
76594;BME280;65482;50.240;14.302;2023-04-24T06:19:26;98483.22;;;12.96;72.96
76594;BME280;65482;50.240;14.302;2023-04-24T06:30:41;98511.28;;;12.83;72.47
76594;BME280;65482;50.240;14.302;2023-04-24T06:34:20;98515.31;;;12.79;72.83
76594;BME280;65482;50.240;14.302;2023-04-24T06:37:25;98513.31;;;12.81;72.79
76594;BME280;65482;50.240;14.302;2023-04-24T06:39:51;98516.75;;;12.82;72.87
76594;BME280;65482;50.240;14.302;2023-04-24T06:42:17;98514.13;;;12.82;73.53
76594;BME280;65482;50.240;14.302;2023-04-24T06:44:42;98518.19;;;12.84;73.64
76594;BME280;65482;50.240;14.302;2023-04-24T06:47:09;98517.81;;;12.87;73.61
76594;BME280;65482;50.240;14.302;2023-04-24T06:49:38;98525.53;;;12.89;73.36
76594;BME280;65482;50.240;14.302;2023-04-24T06:52:03;98518.66;;;13.01;73.18
76594;BME280;65482;50.240;14.302;2023-04-24T06:54:30;98517.84;;;13.14;73.14
76594;BME280;65482;50.240;14.302;2023-04-24T06:56:56;98518.69;;;13.21;73.25
76594;BME280;65482;50.240;14.302;2023-04-24T06:59:30;98523.81;;;13.36;72.43
76594;BME280;65482;50.240;14.302;2023-04-24T07:01:56;98524.66;;;13.43;72.25
76594;BME280;65482;50.240;14.302;2023-04-24T07:04:22;98524.63;;;13.57;72.34
76594;BME280;65482;50.240;14.302;2023-04-24T07:06:48;98525.66;;;13.76;71.17
76594;BME280;65482;50.240;14.302;2023-04-24T07:09:15;98524.41;;;13.91;71.13
76594;BME280;65482;50.240;14.302;2023-04-24T07:11:44;98525.38;;;14.10;70.41
76594;BME280;65482;50.240;14.302;2023-04-24T07:14:11;98536.59;;;14.26;69.65
76594;BME280;65482;50.240;14.302;2023-04-24T07:16:36;98536.97;;;14.43;68.66
76594;BME280;65482;50.240;14.302;2023-04-24T07:19:02;98534.88;;;14.51;68.79
76594;BME280;65482;50.240;14.302;2023-04-24T07:21:28;98528.56;;;14.52;68.41
76594;BME280;65482;50.240;14.302;2023-04-24T07:23:53;98537.13;;;14.55;68.43
76594;BME280;65482;50.240;14.302;2023-04-24T07:26:19;98527.34;;;14.48;68.22
76594;BME280;65482;50.240;14.302;2023-04-24T07:28:46;98526.78;;;14.26;67.37
76594;BME280;65482;50.240;14.302;2023-04-24T07:31:12;98529.22;;;14.35;67.86
76594;BME280;65482;50.240;14.302;2023-04-24T07:33:37;98527.41;;;14.28;67.93
76594;BME280;65482;50.240;14.302;2023-04-24T07:36:03;98529.66;;;14.25;67.52
76594;BME280;65482;50.240;14.302;2023-04-24T07:38:31;98531.31;;;14.19;68.56
76594;BME280;65482;50.240;14.302;2023-04-24T07:40:57;98541.31;;;14.17;68.68
76594;BME280;65482;50.240;14.302;2023-04-24T07:43:23;98543.16;;;14.10;68.69
76594;BME280;65482;50.240;14.302;2023-04-24T07:45:53;98541.31;;;14.04;69.03
76594;BME280;65482;50.240;14.302;2023-04-24T07:48:19;98545.59;;;13.98;69.24
76594;BME280;65482;50.240;14.302;2023-04-24T07:50:47;98539.31;;;13.99;69.04
76594;BME280;65482;50.240;14.302;2023-04-24T07:53:13;98542.38;;;13.83;69.06
76594;BME280;65482;50.240;14.302;2023-04-24T07:55:38;98547.06;;;13.74;69.46
76594;BME280;65482;50.240;14.302;2023-04-24T07:58:04;98535.66;;;13.87;69.62
76594;BME280;65482;50.240;14.302;2023-04-24T08:00:29;98546.88;;;13.89;69.41
76594;BME280;65482;50.240;14.302;2023-04-24T08:02:55;98551.53;;;13.93;69.16
76594;BME280;65482;50.240;14.302;2023-04-24T08:05:21;98542.16;;;13.91;69.62
76594;BME280;65482;50.240;14.302;2023-04-24T08:07:46;98547.47;;;13.84;68.86
76594;BME280;65482;50.240;14.302;2023-04-24T08:10:14;98548.50;;;13.83;70.05
76594;BME280;65482;50.240;14.302;2023-04-24T08:12:40;98546.63;;;13.90;70.51
76594;BME280;65482;50.240;14.302;2023-04-24T08:15:06;98535.22;;;13.97;69.81
76594;BME280;65482;50.240;14.302;2023-04-24T08:17:34;98538.88;;;14.09;69.47
76594;BME280;65482;50.240;14.302;2023-04-24T08:20:05;98537.25;;;14.01;69.08
76594;BME280;65482;50.240;14.302;2023-04-24T08:22:43;98535.00;;;14.05;68.95
76594;BME280;65482;50.240;14.302;2023-04-24T08:25:11;98529.69;;;14.11;69.22
76594;BME280;65482;50.240;14.302;2023-04-24T08:27:39;98539.66;;;14.16;68.42
76594;BME280;65482;50.240;14.302;2023-04-24T08:30:06;98533.16;;;14.19;68.20
76594;BME280;65482;50.240;14.302;2023-04-24T08:32:32;98541.81;;;14.59;67.07
76594;BME280;65482;50.240;14.302;2023-04-24T08:34:59;98553.72;;;14.23;68.36
76594;BME280;65482;50.240;14.302;2023-04-24T08:37:26;98549.25;;;14.24;68.09
76594;BME280;65482;50.240;14.302;2023-04-24T08:39:53;98552.47;;;14.39;68.51
76594;BME280;65482;50.240;14.302;2023-04-24T08:42:21;98551.88;;;14.37;69.30
76594;BME280;65482;50.240;14.302;2023-04-24T08:44:50;98561.03;;;14.41;68.41
76594;BME280;65482;50.240;14.302;2023-04-24T08:47:19;98558.38;;;14.41;68.24
76594;BME280;65482;50.240;14.302;2023-04-24T08:49:47;98556.38;;;14.23;67.48
76594;BME280;65482;50.240;14.302;2023-04-24T08:52:13;98557.22;;;14.17;67.89
76594;BME280;65482;50.240;14.302;2023-04-24T08:54:40;98559.44;;;14.20;67.08
76594;BME280;65482;50.240;14.302;2023-04-24T08:57:09;98557.22;;;14.04;68.25
76594;BME280;65482;50.240;14.302;2023-04-24T08:59:37;98562.16;;;13.87;68.57
76594;BME280;65482;50.240;14.302;2023-04-24T09:02:03;98562.97;;;13.81;67.66
76594;BME280;65482;50.240;14.302;2023-04-24T09:04:30;98563.16;;;13.86;68.60
76594;BME280;65482;50.240;14.302;2023-04-24T09:06:57;98559.69;;;13.85;68.52
76594;BME280;65482;50.240;14.302;2023-04-24T09:09:24;98565.00;;;13.85;68.84
76594;BME280;65482;50.240;14.302;2023-04-24T09:11:51;98564.16;;;13.98;68.38
76594;BME280;65482;50.240;14.302;2023-04-24T09:14:19;98563.34;;;14.04;68.11
76594;BME280;65482;50.240;14.302;2023-04-24T09:16:46;98565.59;;;14.07;67.76
76594;BME280;65482;50.240;14.302;2023-04-24T09:19:11;98558.84;;;14.18;67.21
76594;BME280;65482;50.240;14.302;2023-04-24T09:21:37;98553.03;;;14.48;67.53
76594;BME280;65482;50.240;14.302;2023-04-24T09:24:05;98554.06;;;14.60;66.20
76594;BME280;65482;50.240;14.302;2023-04-24T09:26:34;98560.97;;;14.68;65.68
76594;BME280;65482;50.240;14.302;2023-04-24T09:29:04;98554.59;;;14.82;66.34
76594;BME280;65482;50.240;14.302;2023-04-24T09:31:34;98559.22;;;14.94;66.14
76594;BME280;65482;50.240;14.302;2023-04-24T09:34:03;98555.78;;;15.25;65.45
76594;BME280;65482;50.240;14.302;2023-04-24T09:36:33;98552.59;;;15.48;64.70
76594;BME280;65482;50.240;14.302;2023-04-24T09:39:06;98555.44;;;15.71;62.90
76594;BME280;65482;50.240;14.302;2023-04-24T09:41:53;98544.50;;;16.12;61.80
76594;BME280;65482;50.240;14.302;2023-04-24T09:44:25;98548.66;;;16.44;61.05
76594;BME280;65482;50.240;14.302;2023-04-24T09:46:53;98543.38;;;16.75;60.74
76594;BME280;65482;50.240;14.302;2023-04-24T09:51:49;98537.78;;;17.13;58.88
76594;BME280;65482;50.240;14.302;2023-04-24T09:54:19;98536.22;;;17.36;58.61
76594;BME280;65482;50.240;14.302;2023-04-24T09:56:49;98531.53;;;17.73;57.77
76594;BME280;65482;50.240;14.302;2023-04-24T09:59:16;98525.09;;;17.93;55.71
76594;BME280;65482;50.240;14.302;2023-04-24T10:01:42;98530.38;;;18.28;56.06
76594;BME280;65482;50.240;14.302;2023-04-24T10:04:35;98531.91;;;18.12;55.11
76594;BME280;65482;50.240;14.302;2023-04-24T10:07:03;98527.81;;;18.33;55.36
76594;BME280;65482;50.240;14.302;2023-04-24T10:09:34;98526.28;;;18.49;54.38
76594;BME280;65482;50.240;14.302;2023-04-24T10:12:01;98530.22;;;18.58;51.64
76594;BME280;65482;50.240;14.302;2023-04-24T10:14:29;98530.84;;;18.77;52.04
76594;BME280;65482;50.240;14.302;2023-04-24T10:16:57;98528.59;;;18.98;50.65
76594;BME280;65482;50.240;14.302;2023-04-24T10:19:25;98520.31;;;19.28;50.84
76594;BME280;65482;50.240;14.302;2023-04-24T10:21:52;98520.25;;;19.40;51.33
76594;BME280;65482;50.240;14.302;2023-04-24T10:24:18;98519.84;;;19.65;48.71
76594;BME280;65482;50.240;14.302;2023-04-24T10:26:47;98515.78;;;19.45;47.67
76594;BME280;65482;50.240;14.302;2023-04-24T10:29:16;98525.19;;;19.48;48.21
76594;BME280;65482;50.240;14.302;2023-04-24T10:31:42;98522.03;;;19.68;47.67
76594;BME280;65482;50.240;14.302;2023-04-24T10:34:11;98518.28;;;19.69;47.33
76594;BME280;65482;50.240;14.302;2023-04-24T10:36:43;98527.78;;;19.60;47.35
76594;BME280;65482;50.240;14.302;2023-04-24T10:39:12;98520.25;;;19.57;48.54
76594;BME280;65482;50.240;14.302;2023-04-24T10:41:39;98516.19;;;19.54;48.76
76594;BME280;65482;50.240;14.302;2023-04-24T10:44:08;98512.69;;;19.71;47.12
76594;BME280;65482;50.240;14.302;2023-04-24T10:46:35;98519.13;;;19.70;47.19
76594;BME280;65482;50.240;14.302;2023-04-24T10:49:05;98518.44;;;19.45;48.76
76594;BME280;65482;50.240;14.302;2023-04-24T10:51:54;98515.59;;;19.35;48.00
76594;BME280;65482;50.240;14.302;2023-04-24T10:54:46;98511.06;;;19.19;48.52
76594;BME280;65482;50.240;14.302;2023-04-24T10:59:46;98502.59;;;18.93;47.44
76594;BME280;65482;50.240;14.302;2023-04-24T11:02:20;98508.84;;;19.16;48.47
76594;BME280;65482;50.240;14.302;2023-04-24T11:05:03;98501.38;;;19.46;47.42
76594;BME280;65482;50.240;14.302;2023-04-24T11:07:29;98501.00;;;19.72;46.46
76594;BME280;65482;50.240;14.302;2023-04-24T11:09:58;98505.38;;;19.78;45.23
76594;BME280;65482;50.240;14.302;2023-04-24T11:12:26;98496.66;;;19.71;44.99
76594;BME280;65482;50.240;14.302;2023-04-24T11:14:59;98492.44;;;19.92;43.76
76594;BME280;65482;50.240;14.302;2023-04-24T11:17:31;98501.53;;;19.91;43.83
76594;BME280;65482;50.240;14.302;2023-04-24T11:20:09;98496.50;;;19.77;42.33
76594;BME280;65482;50.240;14.302;2023-04-24T11:22:37;98496.81;;;19.64;43.66
76594;BME280;65482;50.240;14.302;2023-04-24T11:25:03;98499.50;;;19.64;44.16
76594;BME280;65482;50.240;14.302;2023-04-24T11:27:32;98499.50;;;19.64;43.46
76594;BME280;65482;50.240;14.302;2023-04-24T11:30:00;98499.34;;;19.88;44.55
76594;BME280;65482;50.240;14.302;2023-04-24T11:35:00;98504.19;;;19.57;44.06
76594;BME280;65482;50.240;14.302;2023-04-24T11:37:34;98508.59;;;19.46;44.92
76594;BME280;65482;50.240;14.302;2023-04-24T11:40:01;98502.75;;;19.32;45.63
76594;BME280;65482;50.240;14.302;2023-04-24T11:42:35;98502.56;;;19.22;46.48
76594;BME280;65482;50.240;14.302;2023-04-24T11:45:01;98508.09;;;18.86;46.13
76594;BME280;65482;50.240;14.302;2023-04-24T11:47:31;98500.31;;;19.02;46.76
76594;BME280;65482;50.240;14.302;2023-04-24T11:50:04;98497.59;;;19.14;45.90
76594;BME280;65482;50.240;14.302;2023-04-24T11:52:44;98499.25;;;19.32;46.48
76594;BME280;65482;50.240;14.302;2023-04-24T11:57:55;98504.56;;;19.15;45.17
76594;BME280;65482;50.240;14.302;2023-04-24T12:00:31;98492.19;;;19.08;45.26
76594;BME280;65482;50.240;14.302;2023-04-24T12:03:29;98501.41;;;19.01;46.23
76594;BME280;65482;50.240;14.302;2023-04-24T12:06:09;98490.38;;;18.97;45.84
76594;BME280;65482;50.240;14.302;2023-04-24T12:08:55;98495.06;;;18.90;45.51
76594;BME280;65482;50.240;14.302;2023-04-24T12:11:59;98503.44;;;18.82;45.80
76594;BME280;65482;50.240;14.302;2023-04-24T12:14:58;98504.50;;;18.69;45.74
76594;BME280;65482;50.240;14.302;2023-04-24T12:17:41;98503.53;;;18.58;45.75
76594;BME280;65482;50.240;14.302;2023-04-24T12:20:29;98497.06;;;18.83;46.87
76594;BME280;65482;50.240;14.302;2023-04-24T12:23:34;98497.47;;;19.20;46.77
76594;BME280;65482;50.240;14.302;2023-04-24T12:26:03;98496.25;;;19.28;45.07
76594;BME280;65482;50.240;14.302;2023-04-24T12:28:38;98497.06;;;19.28;44.21
76594;BME280;65482;50.240;14.302;2023-04-24T12:31:36;98495.03;;;19.36;44.32
76594;BME280;65482;50.240;14.302;2023-04-24T13:03:46;98477.97;;;18.91;44.89
76594;BME280;65482;50.240;14.302;2023-04-24T13:06:12;98476.66;;;18.94;45.02
76594;BME280;65482;50.240;14.302;2023-04-24T13:08:40;98485.13;;;19.02;45.78
76594;BME280;65482;50.240;14.302;2023-04-24T13:11:08;98471.84;;;18.79;44.04
76594;BME280;65482;50.240;14.302;2023-04-24T13:13:34;98475.44;;;18.84;44.55
76594;BME280;65482;50.240;14.302;2023-04-24T13:16:00;98469.97;;;18.51;45.04
76594;BME280;65482;50.240;14.302;2023-04-24T13:18:31;98454.44;;;18.47;46.09
76594;BME280;65482;50.240;14.302;2023-04-24T13:20:57;98459.09;;;18.40;45.66
76594;BME280;65482;50.240;14.302;2023-04-24T13:23:22;98457.34;;;18.34;44.96
76594;BME280;65482;50.240;14.302;2023-04-24T13:25:51;98449.22;;;18.69;42.80
76594;BME280;65482;50.240;14.302;2023-04-24T13:28:16;98457.00;;;19.00;40.14
76594;BME280;65482;50.240;14.302;2023-04-24T13:30:42;98449.50;;;19.31;39.25
76594;BME280;65482;50.240;14.302;2023-04-24T13:33:07;98452.75;;;19.33;38.51
76594;BME280;65482;50.240;14.302;2023-04-24T13:58:02;98448.28;;;18.06;40.62
76594;BME280;65482;50.240;14.302;2023-04-24T14:01:19;98468.19;;;18.16;40.22
76594;BME280;65482;50.240;14.302;2023-04-24T14:04:25;98459.88;;;18.00;39.58
76594;BME280;65482;50.240;14.302;2023-04-24T14:06:54;98465.69;;;17.97;39.70
76594;BME280;65482;50.240;14.302;2023-04-24T14:09:20;98464.75;;;17.80;39.51
76594;BME280;65482;50.240;14.302;2023-04-24T14:11:46;98465.44;;;17.63;39.19
76594;BME280;65482;50.240;14.302;2023-04-24T14:14:12;98464.06;;;17.49;39.53
76594;BME280;65482;50.240;14.302;2023-04-24T14:16:38;98468.09;;;17.40;40.02
76594;BME280;65482;50.240;14.302;2023-04-24T14:19:04;98464.59;;;17.27;40.46
76594;BME280;65482;50.240;14.302;2023-04-24T14:21:32;98467.81;;;17.18;40.16
76594;BME280;65482;50.240;14.302;2023-04-24T14:23:57;98471.41;;;17.12;40.39
76594;BME280;65482;50.240;14.302;2023-04-24T14:26:23;98463.53;;;17.17;40.10
76594;BME280;65482;50.240;14.302;2023-04-24T14:28:50;98452.88;;;17.28;40.73